Time;durP1;ratioP1;P1;durP2;ratioP2;P2;SDS_P1;SDS_P2;PMS_P1;PMS_P2;Temp;Humidity;BMP_temperature;BMP_pressure;BME280_temperature;BME280_humidity;BME280_pressure;Samples;Min_cycle;Max_cycle;Signal;HPM_P1;HPM_P2
2022/07/01 00:02:15;;;;;;;28.70;24.10;;;19.20;99.90;;;;;;4994754;28;20095;-68
2022/07/01 00:04:45;;;;;;;29.52;21.95;;;19.20;99.90;;;;;;5001990;28;20699;-70
2022/07/01 00:07:30;;;;;;;26.73;20.15;;;19.20;99.90;;;;;;4995212;28;20056;-68
2022/07/01 00:09:57;;;;;;;26.45;21.77;;;19.20;99.90;;;;;;4996504;28;20069;-72
2022/07/01 00:12:24;;;;;;;23.98;20.67;;;19.20;99.90;;;;;;5005740;28;20046;-68
2022/07/01 00:14:51;;;;;;;23.25;19.35;;;19.20;99.90;;;;;;5002319;28;20057;-69
2022/07/01 00:17:18;;;;;;;23.02;20.60;;;19.20;99.90;;;;;;4999178;28;20156;-66
2022/07/01 00:19:45;;;;;;;25.58;18.77;;;19.20;99.90;;;;;;4991417;28;20579;-69
2022/07/01 00:22:12;;;;;;;19.65;17.02;;;19.20;99.90;;;;;;4994484;28;20119;-68
2022/07/01 00:24:38;;;;;;;19.45;15.23;;;19.20;99.90;;;;;;4999107;28;20057;-66
2022/07/01 00:27:05;;;;;;;14.60;12.48;;;19.20;99.90;;;;;;5002764;28;20476;-74
2022/07/01 00:29:33;;;;;;;13.75;9.88;;;19.20;99.90;;;;;;4998397;28;20833;-72
2022/07/01 00:32:01;;;;;;;11.15;8.45;;;19.20;99.90;;;;;;5000152;28;20062;-65
2022/07/01 00:34:27;;;;;;;10.07;7.25;;;19.20;99.90;;;;;;5007151;28;20065;-69
2022/07/01 00:36:54;;;;;;;11.00;8.18;;;19.20;99.90;;;;;;4995155;28;20054;-69
2022/07/01 00:39:21;;;;;;;6.97;6.15;;;19.20;99.90;;;;;;5005391;28;20049;-67
2022/07/01 00:41:48;;;;;;;5.22;4.43;;;19.20;99.90;;;;;;5003336;28;20108;-71
2022/07/01 00:44:21;;;;;;;7.60;5.93;;;19.20;99.90;;;;;;4991211;28;20046;-66
2022/07/01 00:46:50;;;;;;;6.40;5.70;;;19.10;99.90;;;;;;4993796;28;20100;-66
2022/07/01 00:49:18;;;;;;;6.90;4.82;;;19.10;99.90;;;;;;4994260;28;20065;-70
2022/07/01 00:51:45;;;;;;;8.23;6.20;;;19.10;99.90;;;;;;4997021;28;20096;-67
2022/07/01 00:54:13;;;;;;;5.85;5.25;;;19.10;99.90;;;;;;5005756;28;20057;-71
2022/07/01 00:56:40;;;;;;;9.23;8.32;;;19.10;99.90;;;;;;4996231;28;20053;-66
2022/07/01 00:59:07;;;;;;;7.10;6.32;;;19.10;99.90;;;;;;4992994;28;20125;-67
2022/07/01 01:01:34;;;;;;;7.57;5.85;;;19.10;99.90;;;;;;4991762;28;20104;-68
2022/07/01 01:04:01;;;;;;;8.65;7.28;;;19.10;99.90;;;;;;5004616;28;20499;-69
2022/07/01 01:06:29;;;;;;;7.47;5.93;;;19.20;99.90;;;;;;5004112;28;20065;-66
2022/07/01 01:08:56;;;;;;;8.20;6.85;;;19.20;99.90;;;;;;4995271;28;20050;-69
2022/07/01 01:11:23;;;;;;;6.65;6.05;;;19.20;99.90;;;;;;4999176;28;20077;-69
2022/07/01 01:13:50;;;;;;;8.40;6.82;;;19.10;99.90;;;;;;5002395;28;20077;-66
2022/07/01 01:16:22;;;;;;;6.63;6.00;;;19.10;99.90;;;;;;4991995;28;20383;-69
2022/07/01 01:18:49;;;;;;;6.47;5.47;;;19.10;99.90;;;;;;5005083;28;20124;-66
2022/07/01 01:21:17;;;;;;;6.63;5.80;;;19.20;99.90;;;;;;5004767;28;20065;-66
2022/07/01 01:23:44;;;;;;;5.82;5.32;;;19.20;99.90;;;;;;5001879;28;20101;-67
2022/07/01 01:26:23;;;;;;;5.40;4.57;;;19.10;99.90;;;;;;5003454;28;20084;-65
2022/07/01 01:28:51;;;;;;;5.70;4.93;;;19.10;99.90;;;;;;4994356;28;20112;-68
2022/07/01 01:31:30;;;;;;;6.35;4.80;;;19.10;99.90;;;;;;4988523;28;20124;-71
2022/07/01 01:33:57;;;;;;;8.20;5.28;;;19.10;99.90;;;;;;4981020;28;20116;-67
2022/07/01 01:36:24;;;;;;;7.05;4.40;;;19.10;99.90;;;;;;4977550;28;20051;-66
2022/07/01 01:38:53;;;;;;;6.43;5.35;;;19.10;99.90;;;;;;4972389;28;20078;-67
2022/07/01 01:41:20;;;;;;;5.88;5.03;;;19.10;99.90;;;;;;4980344;28;20046;-65
2022/07/01 01:43:47;;;;;;;8.85;5.72;;;19.10;99.90;;;;;;4986939;28;20156;-68
2022/07/01 01:46:14;;;;;;;6.55;5.85;;;19.10;99.90;;;;;;4978010;28;20188;-66
2022/07/01 01:48:41;;;;;;;4.88;4.20;;;19.10;99.90;;;;;;4981438;28;20042;-65
2022/07/01 01:51:07;;;;;;;5.18;4.55;;;19.10;99.90;;;;;;4975822;28;20452;-71
2022/07/01 01:53:34;;;;;;;5.47;4.85;;;19.10;99.90;;;;;;4985172;28;20380;-67
2022/07/01 01:56:01;;;;;;;7.32;4.22;;;19.10;99.90;;;;;;4978709;28;20100;-67
2022/07/01 01:58:28;;;;;;;5.18;4.68;;;19.10;99.90;;;;;;4978909;28;20054;-67
2022/07/01 02:00:55;;;;;;;6.85;5.63;;;19.10;99.90;;;;;;4982949;28;20128;-67
2022/07/01 02:03:22;;;;;;;5.40;4.88;;;19.10;99.90;;;;;;4984354;28;20045;-67
2022/07/01 02:05:50;;;;;;;6.68;4.20;;;19.10;99.90;;;;;;4994867;28;20052;-70
2022/07/01 02:08:17;;;;;;;4.93;4.45;;;19.00;99.90;;;;;;4979797;28;20053;-69
2022/07/01 02:10:44;;;;;;;4.60;4.20;;;19.00;99.90;;;;;;4981279;28;20180;-69
2022/07/01 02:13:11;;;;;;;5.28;4.80;;;19.00;99.90;;;;;;4980192;28;20523;-66
2022/07/01 02:15:39;;;;;;;7.88;5.35;;;19.00;99.90;;;;;;4976231;28;21713;-70
2022/07/01 02:18:06;;;;;;;5.28;4.75;;;19.00;99.90;;;;;;4972380;28;20114;-72
2022/07/01 02:20:33;;;;;;;5.75;4.35;;;19.00;99.90;;;;;;4971179;28;20055;-68
2022/07/01 02:23:00;;;;;;;6.60;4.55;;;18.90;99.90;;;;;;4982288;28;20050;-68
2022/07/01 02:25:27;;;;;;;4.80;4.40;;;18.90;99.90;;;;;;4981896;28;20138;-68
2022/07/01 02:27:54;;;;;;;5.97;5.15;;;18.90;99.90;;;;;;4997036;28;20058;-66
2022/07/01 02:30:21;;;;;;;6.90;6.30;;;18.90;99.90;;;;;;4997202;28;20077;-66
2022/07/01 02:32:48;;;;;;;4.57;4.15;;;18.90;99.90;;;;;;5001883;28;20365;-66
2022/07/01 02:35:15;;;;;;;5.70;5.10;;;19.00;99.90;;;;;;5004016;28;20053;-68
2022/07/01 02:37:43;;;;;;;4.85;3.95;;;19.00;99.90;;;;;;4993819;28;20196;-67
2022/07/01 02:40:11;;;;;;;4.80;4.32;;;19.00;99.90;;;;;;4997613;28;20129;-71
2022/07/01 02:42:38;;;;;;;5.07;4.30;;;19.00;99.90;;;;;;4994028;28;20050;-68
2022/07/01 02:45:06;;;;;;;5.55;5.00;;;19.00;99.90;;;;;;4999011;28;20163;-66
2022/07/01 02:47:35;;;;;;;7.93;6.40;;;19.00;99.90;;;;;;4994384;28;20062;-69
2022/07/01 02:50:07;;;;;;;4.95;4.40;;;19.00;99.90;;;;;;4989764;28;20058;-67
2022/07/01 02:52:35;;;;;;;5.80;4.38;;;19.00;99.90;;;;;;5006523;28;20149;-70
2022/07/01 02:55:04;;;;;;;5.68;5.00;;;18.90;99.90;;;;;;4992783;28;20102;-68
2022/07/01 02:57:31;;;;;;;6.18;5.57;;;19.00;99.90;;;;;;5005389;28;20037;-66
2022/07/01 02:59:58;;;;;;;5.47;4.97;;;18.90;99.90;;;;;;4992757;28;20480;-65
2022/07/01 03:02:25;;;;;;;5.97;4.78;;;18.90;99.90;;;;;;5005242;28;20045;-66
2022/07/01 03:04:53;;;;;;;6.70;5.68;;;18.90;99.90;;;;;;5001062;28;20086;-69
2022/07/01 03:07:21;;;;;;;6.07;5.57;;;18.90;99.90;;;;;;4998839;28;20065;-67
2022/07/01 03:09:49;;;;;;;8.48;6.07;;;18.90;99.90;;;;;;5003236;28;20045;-67
2022/07/01 03:12:25;;;;;;;8.68;6.32;;;18.90;99.90;;;;;;5001869;28;20077;-73
2022/07/01 03:14:59;;;;;;;9.60;7.03;;;18.90;99.90;;;;;;4998189;28;20058;-68
2022/07/01 03:17:29;;;;;;;8.32;6.38;;;18.90;99.90;;;;;;4993377;28;20493;-68
2022/07/01 03:20:02;;;;;;;6.57;5.88;;;18.90;99.90;;;;;;4998802;28;20447;-65
2022/07/01 03:22:31;;;;;;;11.65;6.68;;;19.00;99.90;;;;;;4997151;28;20083;-69
2022/07/01 03:24:58;;;;;;;8.60;7.10;;;19.00;99.90;;;;;;5000759;28;20578;-68
2022/07/01 03:27:25;;;;;;;20.85;8.02;;;19.00;99.90;;;;;;5004552;28;20460;-69
2022/07/01 03:29:52;;;;;;;8.65;6.80;;;19.00;99.90;;;;;;5001579;28;20112;-66
2022/07/01 03:32:19;;;;;;;6.65;6.00;;;19.00;99.90;;;;;;4999648;28;20053;-68
2022/07/01 03:34:49;;;;;;;9.98;7.63;;;19.00;99.90;;;;;;5004974;28;20116;-70
2022/07/01 03:37:17;;;;;;;9.02;7.30;;;19.00;99.90;;;;;;4992799;28;20492;-65
2022/07/01 03:39:45;;;;;;;10.55;8.05;;;19.00;99.90;;;;;;4992204;28;20120;-67
2022/07/01 03:42:12;;;;;;;10.25;7.97;;;19.00;99.90;;;;;;4990322;28;21109;-68
2022/07/01 03:44:39;;;;;;;8.85;7.95;;;19.10;99.90;;;;;;5001551;28;20078;-67
2022/07/01 03:47:07;;;;;;;9.13;8.23;;;19.00;99.90;;;;;;4994047;28;22008;-68
2022/07/01 03:49:35;;;;;;;9.00;7.22;;;19.10;99.90;;;;;;5001222;28;20489;-66
2022/07/01 03:52:03;;;;;;;11.50;10.18;;;19.10;99.90;;;;;;4997800;28;20089;-69
2022/07/01 03:54:31;;;;;;;11.07;9.98;;;19.10;99.90;;;;;;5000827;28;20096;-67
2022/07/01 03:57:02;;;;;;;14.35;10.27;;;19.10;99.90;;;;;;4998365;28;20116;-65
2022/07/01 03:59:32;;;;;;;12.95;8.57;;;19.10;99.90;;;;;;4988231;28;20622;-71
2022/07/01 04:01:59;;;;;;;12.30;9.27;;;19.10;99.90;;;;;;4995629;28;20050;-66
2022/07/01 04:04:27;;;;;;;15.65;10.35;;;19.10;99.90;;;;;;4997101;28;20429;-68
2022/07/01 04:06:56;;;;;;;14.07;9.48;;;19.10;99.90;;;;;;4999554;28;20793;-65
2022/07/01 04:09:25;;;;;;;13.18;10.48;;;19.20;99.90;;;;;;4992682;28;20053;-70
2022/07/01 04:11:53;;;;;;;11.77;8.23;;;19.20;99.90;;;;;;4989739;28;20046;-67
2022/07/01 04:14:20;;;;;;;11.60;8.27;;;19.20;99.90;;;;;;4997700;28;20496;-66
2022/07/01 04:16:47;;;;;;;13.57;9.35;;;19.20;99.90;;;;;;4998533;28;20166;-65
2022/07/01 04:19:14;;;;;;;11.63;9.70;;;19.30;99.90;;;;;;4999395;28;20663;-69
2022/07/01 04:24:28;;;;;;;14.50;10.23;;;19.40;99.90;;;;;;4999970;28;20067;-66
2022/07/01 04:26:55;;;;;;;14.70;11.93;;;19.40;99.90;;;;;;4999026;28;20085;-67
2022/07/01 04:29:22;;;;;;;17.50;11.63;;;19.40;99.90;;;;;;4990820;28;20495;-66
2022/07/01 04:31:49;;;;;;;16.40;10.95;;;19.40;99.90;;;;;;5001107;28;20137;-67
2022/07/01 04:34:16;;;;;;;22.25;13.93;;;19.50;99.90;;;;;;5000302;28;20077;-65
2022/07/01 04:36:43;;;;;;;13.48;11.93;;;19.50;99.90;;;;;;4998859;28;20073;-66
2022/07/01 04:39:10;;;;;;;15.07;11.52;;;19.50;99.90;;;;;;5003573;28;20045;-65
2022/07/01 04:44:23;;;;;;;25.98;13.13;;;19.50;99.90;;;;;;4994784;28;20053;-67
2022/07/01 04:46:50;;;;;;;18.63;12.10;;;19.60;99.90;;;;;;5002681;28;20117;-65
2022/07/01 04:49:18;;;;;;;29.27;15.07;;;19.60;99.90;;;;;;5006126;28;20773;-69
2022/07/01 04:51:44;;;;;;;18.08;13.88;;;19.60;99.90;;;;;;4997329;28;20078;-69
2022/07/01 04:54:11;;;;;;;19.80;13.88;;;19.70;99.90;;;;;;4993819;28;20049;-66
2022/07/01 04:56:38;;;;;;;24.90;15.00;;;19.70;99.90;;;;;;5002706;28;20955;-68
2022/07/01 04:59:13;;;;;;;20.80;14.20;;;19.70;99.90;;;;;;4992116;28;20050;-65
2022/07/01 05:01:48;;;;;;;20.10;14.23;;;19.70;99.90;;;;;;4990577;28;20051;-69
2022/07/01 05:04:17;;;;;;;31.55;16.27;;;19.70;99.90;;;;;;5000374;28;20182;-66
2022/07/01 05:06:44;;;;;;;24.67;14.15;;;19.70;99.90;;;;;;5000608;28;20045;-74
2022/07/01 05:09:12;;;;;;;29.05;16.38;;;19.80;99.90;;;;;;4994103;28;20136;-75
2022/07/01 05:11:39;;;;;;;19.92;14.70;;;19.70;99.90;;;;;;4996476;28;20069;-66
2022/07/01 05:14:07;;;;;;;18.85;15.23;;;19.80;99.90;;;;;;4997502;28;20042;-69
2022/07/01 05:16:35;;;;;;;29.27;17.05;;;19.80;99.90;;;;;;4996839;28;20054;-68
2022/07/01 05:21:58;;;;;;;27.67;15.05;;;19.80;99.90;;;;;;5001053;28;20092;-67
2022/07/01 05:24:30;;;;;;;19.50;14.48;;;19.80;99.90;;;;;;5004017;28;20045;-70
2022/07/01 05:26:59;;;;;;;26.88;16.63;;;19.80;99.90;;;;;;5001565;28;20850;-68
2022/07/01 05:29:26;;;;;;;26.50;16.42;;;19.80;99.90;;;;;;4992980;28;20045;-65
2022/07/01 05:31:53;;;;;;;26.20;16.83;;;19.90;99.90;;;;;;5005046;28;20074;-67
2022/07/01 05:34:21;;;;;;;24.20;14.57;;;19.90;99.90;;;;;;4996319;28;20540;-65
2022/07/01 05:36:48;;;;;;;22.40;14.98;;;19.90;99.90;;;;;;4993445;28;20074;-68
2022/07/01 05:39:15;;;;;;;18.50;15.52;;;19.90;99.90;;;;;;5002867;28;20057;-68
2022/07/01 05:41:42;;;;;;;24.30;14.10;;;19.80;99.90;;;;;;5009721;28;20049;-66
2022/07/01 05:44:09;;;;;;;26.58;14.90;;;19.80;99.90;;;;;;5008739;28;20076;-68
2022/07/01 05:46:36;;;;;;;25.55;14.25;;;19.80;99.90;;;;;;5006447;28;20042;-68
2022/07/01 05:49:03;;;;;;;23.25;14.82;;;19.80;99.90;;;;;;5003574;28;20096;-71
2022/07/01 05:51:30;;;;;;;24.83;14.55;;;19.80;99.90;;;;;;4999436;28;20172;-72
2022/07/01 05:53:58;;;;;;;17.25;11.25;;;19.80;99.90;;;;;;4991592;28;20050;-66
2022/07/01 05:56:25;;;;;;;16.60;13.07;;;19.80;99.90;;;;;;4994434;28;20116;-70
2022/07/01 05:58:54;;;;;;;17.85;12.02;;;19.80;99.90;;;;;;5002368;28;20107;-66
2022/07/01 06:01:21;;;;;;;20.20;11.77;;;19.80;99.90;;;;;;4999734;28;20061;-70
2022/07/01 06:03:48;;;;;;;17.73;12.82;;;19.80;99.90;;;;;;4991600;28;20124;-65
2022/07/01 06:06:15;;;;;;;19.73;14.45;;;19.80;99.90;;;;;;4997075;28;20135;-67
2022/07/01 06:08:42;;;;;;;19.15;11.75;;;19.80;99.90;;;;;;4993033;28;20195;-67
2022/07/01 06:11:09;;;;;;;25.08;13.95;;;19.80;99.90;;;;;;5008222;28;20115;-63
2022/07/01 06:13:35;;;;;;;19.33;13.55;;;19.80;99.90;;;;;;5006254;28;20441;-66
2022/07/01 06:16:03;;;;;;;26.20;14.57;;;19.70;99.90;;;;;;5006329;28;20721;-73
2022/07/01 06:18:30;;;;;;;24.50;14.75;;;19.70;99.90;;;;;;4998170;28;20041;-68
2022/07/01 06:20:57;;;;;;;20.75;16.17;;;19.80;99.90;;;;;;5002248;28;20050;-66
2022/07/01 06:23:24;;;;;;;15.52;11.75;;;19.80;99.90;;;;;;5001784;28;20057;-72
2022/07/01 06:25:51;;;;;;;26.55;14.48;;;19.80;99.90;;;;;;5002528;28;20055;-66
2022/07/01 06:28:18;;;;;;;20.35;13.25;;;19.80;99.90;;;;;;5005466;28;20779;-67
2022/07/01 06:30:45;;;;;;;23.88;16.13;;;19.80;99.90;;;;;;5000084;28;20054;-66
2022/07/01 06:33:13;;;;;;;21.45;13.02;;;19.80;99.90;;;;;;4998697;28;20112;-71
2022/07/01 06:35:40;;;;;;;23.08;13.95;;;19.80;99.90;;;;;;4994854;28;20200;-66
2022/07/01 06:38:07;;;;;;;18.73;12.98;;;19.80;99.90;;;;;;5005923;28;20042;-72
2022/07/01 06:40:34;;;;;;;21.55;13.00;;;19.80;99.90;;;;;;4996049;28;20046;-67
2022/07/01 06:43:01;;;;;;;21.65;13.20;;;19.80;99.90;;;;;;5000357;28;20085;-68
2022/07/01 06:45:28;;;;;;;21.52;14.75;;;19.90;99.90;;;;;;4992955;28;20058;-69
2022/07/01 06:47:55;;;;;;;21.08;11.52;;;19.90;99.90;;;;;;5011642;28;20699;-71
2022/07/01 06:50:22;;;;;;;16.45;10.60;;;19.90;99.90;;;;;;4992376;28;20416;-69
2022/07/01 06:52:49;;;;;;;24.88;15.15;;;19.90;99.90;;;;;;5000052;28;20352;-66
2022/07/01 06:55:17;;;;;;;18.85;11.40;;;19.90;99.90;;;;;;4996916;28;20116;-68
2022/07/01 06:57:43;;;;;;;19.45;11.60;;;19.90;99.90;;;;;;4996930;28;20513;-67
2022/07/01 07:00:11;;;;;;;20.65;11.82;;;20.00;99.90;;;;;;5003590;28;20151;-65
2022/07/01 07:02:39;;;;;;;32.78;10.98;;;20.00;99.90;;;;;;4995652;28;20054;-68
2022/07/01 07:05:07;;;;;;;20.08;11.05;;;20.10;99.90;;;;;;5004043;28;20045;-70
2022/07/01 07:07:34;;;;;;;11.05;9.05;;;20.30;99.90;;;;;;4998517;28;20068;-71
2022/07/01 07:10:01;;;;;;;14.30;10.15;;;20.40;99.90;;;;;;5006536;28;20080;-66
2022/07/01 07:12:28;;;;;;;15.35;8.88;;;20.50;99.90;;;;;;5000045;28;20108;-73
2022/07/01 07:14:55;;;;;;;13.90;9.43;;;20.50;99.90;;;;;;5004938;28;20080;-68
2022/07/01 07:17:22;;;;;;;12.43;8.75;;;20.70;99.90;;;;;;4994036;28;20057;-69
2022/07/01 07:19:49;;;;;;;13.15;9.18;;;20.80;99.90;;;;;;4996294;28;20049;-67
2022/07/01 07:22:16;;;;;;;12.63;8.65;;;20.80;99.90;;;;;;5000415;28;20046;-68
2022/07/01 07:24:43;;;;;;;15.32;8.82;;;20.90;99.90;;;;;;5002561;28;20112;-69
2022/07/01 07:27:10;;;;;;;17.60;10.20;;;21.00;99.90;;;;;;4994795;28;20082;-67
2022/07/01 07:29:39;;;;;;;12.50;9.52;;;21.10;99.90;;;;;;4999720;28;20050;-67
2022/07/01 07:32:06;;;;;;;11.60;9.38;;;21.30;99.90;;;;;;4992021;28;20038;-70
2022/07/01 07:34:34;;;;;;;13.13;8.98;;;21.30;99.90;;;;;;4993258;28;20537;-65
2022/07/01 07:37:02;;;;;;;15.00;10.18;;;21.40;99.90;;;;;;5004556;28;20171;-73
2022/07/01 07:39:29;;;;;;;11.55;7.82;;;21.40;99.90;;;;;;4993574;28;20553;-67
2022/07/01 07:41:59;;;;;;;13.20;7.75;;;21.50;99.90;;;;;;4992389;28;20077;-66
2022/07/01 07:44:26;;;;;;;20.13;10.07;;;21.60;99.90;;;;;;5003171;28;20042;-74
2022/07/01 07:46:53;;;;;;;17.42;10.55;;;21.80;99.90;;;;;;5004471;28;20104;-66
2022/07/01 07:49:20;;;;;;;9.60;8.52;;;21.90;99.90;;;;;;5006488;28;20131;-67
2022/07/01 07:51:47;;;;;;;11.45;8.63;;;22.00;99.90;;;;;;5000526;28;20099;-71
2022/07/01 07:54:14;;;;;;;12.32;8.38;;;22.00;99.90;;;;;;5004533;28;20148;-69
2022/07/01 07:56:41;;;;;;;19.00;11.80;;;22.10;99.90;;;;;;5009700;28;20050;-66
2022/07/01 07:59:11;;;;;;;;;;;22.10;99.90;;;;;;5017349;28;20041;-66
2022/07/01 08:01:38;;;;;;;10.50;8.77;;;22.10;99.90;;;;;;4999852;28;19976;-66
2022/07/01 08:04:05;;;;;;;11.82;9.00;;;22.30;99.90;;;;;;5010965;28;20053;-68
2022/07/01 08:06:32;;;;;;;10.38;8.18;;;22.30;99.90;;;;;;4997518;28;20576;-70
2022/07/01 08:08:59;;;;;;;21.17;9.93;;;22.30;99.90;;;;;;4996629;28;20078;-67
2022/07/01 08:11:26;;;;;;;10.60;8.48;;;22.30;99.90;;;;;;5008788;28;20487;-67
2022/07/01 08:13:53;;;;;;;10.27;7.85;;;22.60;99.90;;;;;;4991839;28;20046;-68
2022/07/01 08:16:20;;;;;;;13.45;8.63;;;22.80;99.90;;;;;;5000130;28;20096;-69
2022/07/01 08:18:47;;;;;;;10.52;7.60;;;22.90;99.90;;;;;;5004139;28;20663;-66
2022/07/01 08:21:14;;;;;;;12.38;7.35;;;23.00;99.90;;;;;;5001664;28;20043;-69
2022/07/01 08:23:41;;;;;;;10.40;7.95;;;23.10;99.90;;;;;;4999008;28;20753;-66
2022/07/01 08:26:08;;;;;;;9.90;6.80;;;23.00;99.90;;;;;;5003571;28;20503;-68
2022/07/01 08:28:35;;;;;;;10.05;7.45;;;23.20;99.90;;;;;;5000379;28;20061;-72
2022/07/01 08:31:02;;;;;;;8.35;6.38;;;23.30;99.90;;;;;;5012806;28;20678;-66
2022/07/01 08:33:31;;;;;;;8.60;7.68;;;23.20;99.90;;;;;;4997062;28;20378;-66
2022/07/01 08:35:57;;;;;;;7.78;6.43;;;23.30;99.90;;;;;;5003123;28;20139;-69
2022/07/01 08:38:24;;;;;;;11.57;7.18;;;23.40;99.90;;;;;;4989773;28;20070;-67
2022/07/01 08:40:52;;;;;;;7.32;6.47;;;23.40;99.90;;;;;;5003141;28;20068;-66
2022/07/01 08:43:20;;;;;;;9.10;7.10;;;23.50;99.90;;;;;;4998424;28;20043;-68
2022/07/01 08:45:50;;;;;;;8.65;7.85;;;23.80;99.90;;;;;;5005156;28;20487;-68
2022/07/01 08:48:18;;;;;;;9.10;6.85;;;23.90;99.90;;;;;;5007476;28;20056;-73
2022/07/01 08:50:45;;;;;;;11.73;7.00;;;23.90;99.90;;;;;;4994219;28;20051;-66
2022/07/01 08:53:13;;;;;;;9.38;6.97;;;24.00;99.90;;;;;;4999606;28;20123;-68
2022/07/01 08:58:27;;;;;;;6.72;6.13;;;23.80;99.90;;;;;;5003575;28;20116;-70
2022/07/01 09:01:20;;;;;;;6.88;6.13;;;23.90;99.90;;;;;;5007238;28;20050;-66
2022/07/01 09:03:53;;;;;;;7.80;6.97;;;23.90;99.90;;;;;;4999486;28;20046;-70
2022/07/01 09:06:23;;;;;;;7.47;6.82;;;23.90;99.90;;;;;;5004754;28;20128;-66
2022/07/01 09:08:50;;;;;;;8.20;7.40;;;24.00;99.90;;;;;;5003712;28;20046;-66
2022/07/01 09:11:26;;;;;;;8.35;6.30;;;24.10;99.90;;;;;;5009225;28;20037;-66
2022/07/01 09:14:14;;;;;;;9.48;6.55;;;24.20;99.90;;;;;;5020332;28;20120;-68
2022/07/01 09:16:44;;;;;;;9.07;7.40;;;24.30;99.90;;;;;;5013237;28;20092;-67
2022/07/01 09:19:13;;;;;;;11.30;7.10;;;24.30;99.90;;;;;;5010598;28;20050;-66
2022/07/01 09:21:41;;;;;;;7.30;6.55;;;24.50;99.90;;;;;;4994982;28;20070;-66
2022/07/01 09:24:30;;;;;;;9.55;6.22;;;24.60;99.90;;;;;;5014757;28;20065;-69
2022/07/01 09:27:06;;;;;;;9.63;6.82;;;24.80;99.90;;;;;;5014413;28;20145;-66
2022/07/01 09:29:36;;;;;;;6.90;5.90;;;24.90;99.90;;;;;;5007964;28;20088;-74
2022/07/01 09:32:04;;;;;;;;;;;24.90;99.90;;;;;;5010418;28;20057;-70
2022/07/01 09:34:54;;;;;;;11.70;7.68;;;25.00;99.90;;;;;;4999968;28;19947;-66
2022/07/01 09:37:25;;;;;;;10.75;7.07;;;25.00;99.90;;;;;;5009073;28;20073;-68
2022/07/01 09:39:54;;;;;;;7.80;6.97;;;25.00;99.90;;;;;;5000761;28;20067;-67
2022/07/01 09:42:23;;;;;;;12.38;9.50;;;25.10;99.90;;;;;;5006356;28;20468;-66
2022/07/01 09:44:53;;;;;;;9.88;7.40;;;25.30;99.90;;;;;;5007447;28;20430;-71
2022/07/01 09:47:28;;;;;;;11.55;8.40;;;25.40;99.90;;;;;;5007376;28;20045;-71
2022/07/01 09:49:56;;;;;;;8.23;7.43;;;25.50;99.90;;;;;;4990875;28;20137;-66
2022/07/01 09:52:24;;;;;;;14.48;8.95;;;25.60;99.90;;;;;;5006727;28;20852;-66
2022/07/01 09:54:52;;;;;;;8.77;7.13;;;25.70;99.90;;;;;;4994924;28;20042;-66
2022/07/01 09:57:20;;;;;;;7.78;6.50;;;25.80;99.90;;;;;;5004332;28;20077;-68
2022/07/01 09:59:51;;;;;;;10.20;6.60;;;25.90;99.90;;;;;;5003409;28;20893;-69
2022/07/01 10:02:19;;;;;;;9.45;7.68;;;25.90;99.90;;;;;;5004900;28;20697;-69
2022/07/01 10:04:58;;;;;;;12.13;6.85;;;25.90;99.90;;;;;;4996195;28;20053;-67
2022/07/01 10:08:00;;;;;;;17.43;7.20;;;26.00;99.90;;;;;;4996413;28;20058;-71
2022/07/01 10:10:55;;;;;;;9.38;6.28;;;26.00;99.90;;;;;;5004490;28;20049;-68
2022/07/01 10:13:25;;;;;;;10.13;7.07;;;26.20;99.90;;;;;;5007587;28;20049;-70
2022/07/01 10:15:55;;;;;;;7.45;6.72;;;26.30;99.90;;;;;;5000154;28;20053;-67
2022/07/01 10:18:26;;;;;;;;;;;26.30;99.90;;;;;;4999629;28;20046;-67
2022/07/01 10:20:55;;;;;;;9.95;7.45;;;26.50;99.90;;;;;;4996376;28;20063;-67
2022/07/01 10:23:24;;;;;;;6.97;6.28;;;26.70;99.90;;;;;;5006117;28;20149;-66
2022/07/01 10:25:52;;;;;;;6.47;5.82;;;26.90;99.90;;;;;;5003915;28;20354;-68
2022/07/01 10:28:52;;;;;;;8.82;7.10;;;27.10;99.90;;;;;;5001347;28;20344;-68
2022/07/01 10:31:34;;;;;;;7.13;6.53;;;27.30;99.90;;;;;;4996657;28;20041;-68
2022/07/01 10:34:08;;;;;;;6.93;6.05;;;27.40;99.90;;;;;;5015686;28;20140;-67
2022/07/01 10:36:35;;;;;;;7.45;6.70;;;27.30;99.90;;;;;;5026906;28;20045;-66
2022/07/01 10:39:13;;;;;;;6.60;5.88;;;27.20;99.90;;;;;;5025167;28;20041;-68
2022/07/01 10:41:53;;;;;;;6.75;6.25;;;27.10;99.90;;;;;;5020715;28;20069;-69
2022/07/01 10:45:17;;;;;;;5.80;5.30;;;27.00;99.90;;;;;;5003963;28;20116;-67
2022/07/01 10:47:44;;;;;;;7.13;6.25;;;26.60;99.90;;;;;;4994777;28;20081;-71
2022/07/01 10:50:15;;;;;;;9.43;5.70;;;25.60;99.90;;;;;;5000957;28;20130;-66
2022/07/01 10:53:03;;;;;;;8.80;6.05;;;25.10;99.90;;;;;;4997518;28;20128;-71
2022/07/01 10:55:39;;;;;;;9.70;7.10;;;25.10;99.90;;;;;;4998571;28;20473;-67
2022/07/01 10:58:06;;;;;;;9.65;6.45;;;24.90;99.90;;;;;;4996595;28;20483;-68
2022/07/01 11:00:35;;;;;;;9.70;5.82;;;24.80;99.90;;;;;;4999542;28;20061;-66
2022/07/01 11:03:11;;;;;;;7.90;5.63;;;24.80;99.90;;;;;;4992732;28;20464;-72
2022/07/01 11:05:39;;;;;;;10.32;7.25;;;24.90;99.90;;;;;;5005139;28;20108;-73
2022/07/01 11:08:07;;;;;;;12.18;7.15;;;24.70;99.90;;;;;;5005883;28;20053;-70
2022/07/01 11:10:39;;;;;;;7.25;6.13;;;24.70;99.90;;;;;;4999445;28;20050;-70
2022/07/01 11:13:07;;;;;;;8.50;6.95;;;24.50;99.90;;;;;;5003543;28;20046;-72
2022/07/01 11:15:34;;;;;;;7.63;6.47;;;24.70;99.90;;;;;;4997155;28;20069;-66
2022/07/01 11:18:02;;;;;;;9.50;8.38;;;24.80;99.90;;;;;;4998713;28;20072;-68
2022/07/01 11:20:31;;;;;;;13.05;7.97;;;24.50;99.90;;;;;;4998442;28;20502;-68
2022/07/01 11:22:59;;;;;;;7.22;6.43;;;24.20;99.90;;;;;;5003769;28;20061;-68
2022/07/01 11:25:27;;;;;;;9.82;6.90;;;24.10;99.90;;;;;;5000825;28;20065;-72
2022/07/01 11:27:54;;;;;;;8.88;6.63;;;24.10;99.90;;;;;;5000812;28;20046;-67
2022/07/01 11:30:22;;;;;;;9.68;6.53;;;24.40;99.90;;;;;;5010986;28;20411;-69
2022/07/01 11:32:56;;;;;;;9.98;7.05;;;24.20;99.90;;;;;;4998944;28;20046;-70
2022/07/01 11:41:22;;;;;;;13.60;7.30;;;24.50;99.90;;;;;;4995379;28;20049;-68
2022/07/01 11:43:51;;;;;;;9.07;6.25;;;24.40;99.90;;;;;;5017580;28;20068;-66
2022/07/01 11:46:18;;;;;;;9.02;6.97;;;24.40;99.90;;;;;;5022413;28;20057;-70
2022/07/01 11:48:51;;;;;;;11.05;7.45;;;24.20;99.90;;;;;;5022381;28;20148;-67
2022/07/01 11:51:23;;;;;;;10.00;6.45;;;23.80;99.90;;;;;;5021268;28;20142;-74
2022/07/01 11:53:56;;;;;;;10.60;5.93;;;23.90;99.90;;;;;;4998947;28;20160;-69
2022/07/01 11:56:30;;;;;;;11.48;6.80;;;24.10;99.90;;;;;;4993768;28;20149;-66
2022/07/01 11:58:58;;;;;;;13.50;7.85;;;24.00;99.90;;;;;;4994392;28;20077;-68
2022/07/01 12:01:31;;;;;;;11.65;6.90;;;24.00;99.90;;;;;;5001404;28;20054;-67
2022/07/01 12:04:02;;;;;;;9.70;6.80;;;24.10;99.90;;;;;;5000554;28;20414;-69
2022/07/01 12:06:30;;;;;;;11.95;8.95;;;24.20;99.90;;;;;;4999131;28;20073;-67
2022/07/01 12:08:58;;;;;;;12.98;6.50;;;24.30;99.90;;;;;;4994508;28;20062;-67
2022/07/01 12:11:26;;;;;;;7.22;5.82;;;24.00;99.90;;;;;;5008268;28;20399;-72
2022/07/01 12:13:56;;;;;;;8.88;6.53;;;24.00;99.90;;;;;;5002849;28;20115;-70
2022/07/01 12:16:24;;;;;;;14.80;8.05;;;24.00;99.90;;;;;;4999205;28;20053;-70
2022/07/01 12:19:00;;;;;;;12.50;7.38;;;24.00;99.90;;;;;;4995737;28;20108;-66
2022/07/01 12:21:29;;;;;;;12.15;6.85;;;23.90;99.90;;;;;;4993695;28;20088;-69
2022/07/01 12:24:11;;;;;;;14.88;7.15;;;23.90;99.90;;;;;;5003976;28;20049;-67
2022/07/01 12:26:47;;;;;;;13.77;8.25;;;23.70;99.90;;;;;;5000699;28;20050;-70
2022/07/01 12:29:16;;;;;;;9.35;7.07;;;23.70;99.90;;;;;;4996191;28;20137;-68
2022/07/01 12:31:44;;;;;;;8.25;6.20;;;23.90;99.90;;;;;;4991410;28;21658;-67
2022/07/01 12:34:11;;;;;;;12.57;6.60;;;24.10;99.90;;;;;;5002568;28;21758;-67
2022/07/01 12:36:48;;;;;;;13.82;6.75;;;24.30;99.90;;;;;;5011510;28;20781;-73
2022/07/01 12:39:15;;;;;;;10.00;6.38;;;24.30;99.90;;;;;;5010589;28;20491;-68
2022/07/01 12:41:50;;;;;;;10.10;8.90;;;24.30;99.90;;;;;;5006089;28;20115;-67
2022/07/01 12:44:25;;;;;;;15.73;7.35;;;24.40;99.90;;;;;;5003689;28;20571;-71
2022/07/01 12:46:52;;;;;;;10.80;6.97;;;24.20;99.90;;;;;;5010423;28;20104;-67
2022/07/01 12:49:24;;;;;;;11.25;7.85;;;24.00;99.90;;;;;;4998822;28;20120;-70
2022/07/01 12:51:54;;;;;;;11.20;8.05;;;24.10;99.90;;;;;;5004823;28;20050;-67
2022/07/01 12:54:32;;;;;;;9.95;8.45;;;24.20;99.90;;;;;;5008162;28;20050;-67
2022/07/01 12:57:00;;;;;;;6.80;6.20;;;24.30;99.90;;;;;;5008092;28;20126;-70
2022/07/01 12:59:28;;;;;;;14.98;8.15;;;24.60;99.90;;;;;;5002191;28;20141;-67
2022/07/01 13:01:58;;;;;;;15.02;7.95;;;24.80;99.90;;;;;;5033323;28;20566;-67
2022/07/01 13:04:27;;;;;;;9.82;7.55;;;24.40;99.90;;;;;;5020232;28;20528;-71
2022/07/01 13:06:54;;;;;;;11.43;7.82;;;24.60;99.90;;;;;;5001753;28;20062;-71
2022/07/01 13:09:21;;;;;;;14.25;8.07;;;24.40;99.90;;;;;;5001458;28;20073;-71